Date,TemperatureHighF,TemperatureAvgF,TemperatureLowF,DewpointHighF,DewpointAvgF,DewpointLowF,HumidityHigh,HumidityAvg,HumidityLow,PressureMaxIn,PressureMinIn,WindSpeedMaxMPH,WindSpeedAvgMPH,GustSpeedMaxMPH,PrecipitationSumIn
2012-9-29,74,69,64,55,51,45,71,54,43,30.12,29.94,18,2,18,0.00
2012-9-30,73,65,60,55,49,43,79,58,35,30.15,29.97,9,4,9,0.00
2012-10-1,71,64,59,54,48,42,76,57,46,30.15,29.97,10,2,10,0.01
2012-10-2,67,62,58,61,59,54,96,89,76,30.09,29.97,10,2,10,0.29
2012-10-3,68,58,49,57,49,42,96,75,44,30.09,30.00,17,4,17,0.33
2012-10-4,70,56,46,53,46,42,96,72,39,30.12,29.94,7,1,7,0.00
2012-10-5,67,57,50,52,39,30,83,51,30,30.18,30.00,15,5,15,0.00
2012-10-6,72,57,47,49,46,41,88,67,43,30.18,29.97,10,2,10,0.00
2012-10-7,69,57,48,58,49,34,94,76,44,30.00,29.77,20,3,20,0.05
2012-10-8,56,48,38,40,34,28,82,59,38,30.15,30.00,18,6,18,0.05
2012-10-9,61,48,36,40,34,32,93,64,36,30.06,29.83,13,2,13,0.00
2012-10-10,58,50,40,39,32,28,81,52,35,29.97,29.83,10,3,10,0.00
2012-10-11,58,46,38,35,31,28,79,58,35,30.00,29.88,12,3,12,0.00
2012-10-12,55,50,42,37,35,32,76,57,43,30.00,29.88,11,4,11,0.00
2012-10-13,61,54,46,45,41,35,75,62,49,30.03,29.88,8,2,8,0.00
2012-10-14,55,53,51,52,46,40,90,78,66,29.88,29.77,6,2,6,0.00
2012-10-15,65,59,55,58,53,49,97,81,61,29.85,29.71,13,4,13,0.00
2012-10-16,60,54,47,60,52,41,98,93,80,30.00,29.74,15,6,15,0.21
2012-10-17,60,50,42,48,42,39,96,77,49,30.21,29.97,9,3,9,0.23
2012-10-18,63,54,48,48,42,36,93,66,38,30.27,30.15,14,5,14,0.00
2012-10-19,66,55,45,47,42,37,82,63,47,30.21,30.09,8,3,8,0.00
2012-10-20,68,57,49,49,46,41,81,66,47,30.15,30.09,6,2,6,0.00
2012-10-21,66,54,45,51,44,41,95,72,46,30.21,30.09,7,2,7,0.00
2012-10-22,65,52,42,54,44,39,98,78,48,30.21,30.15,6,1,6,0.00
2012-10-23,66,53,44,55,46,40,98,77,50,30.24,30.15,7,2,7,0.00
2012-10-24,55,47,39,46,41,36,96,81,68,30.21,30.06,7,2,7,0.00
2012-10-25,51,48,47,44,40,38,85,74,61,30.09,29.85,9,4,9,0.00
2012-10-26,54,48,39,46,40,35,93,74,54,29.91,29.65,13,3,13,0.07
2012-10-27,56,49,41,55,47,38,98,92,85,29.65,29.24,13,5,13,0.36
2012-10-28,41,38,35,39,35,30,95,89,81,29.83,29.35,15,5,15,0.19
2012-10-29,38,36,33,37,34,29,97,92,82,29.88,29.77,8,4,8,0.20
2012-10-30,44,37,30,30,27,22,87,68,44,29.94,29.83,13,4,13,0.20
2012-10-31,44,38,32,34,30,24,84,73,57,30.00,29.85,12,4,12,0.00
2012-11-1,51,43,37,50,38,23,98,83,55,29.88,29.41,23,8,23,0.18
2012-11-2,55,46,35,52,43,32,98,88,66,29.91,29.53,12,3,12,0.18
2012-11-3,49,42,34,48,41,31,98,95,88,30.00,29.88,10,2,10,0.00
2012-11-4,64,54,44,56,47,44,98,81,54,29.91,29.68,15,3,15,0.01
2012-11-5,57,51,42,54,44,34,94,77,64,29.80,29.41,17,6,17,0.17
2012-11-6,54,45,38,40,32,28,88,64,40,30.15,29.77,20,5,20,0.17
2012-11-7,48,42,32,36,30,25,86,64,44,30.33,30.09,18,6,18,0.00
2012-11-8,56,47,40,38,35,33,79,65,42,30.33,30.06,13,4,13,0.00
2012-11-9,54,44,35,39,34,30,83,69,46,30.24,30.03,16,3,16,0.00
2012-11-10,46,40,34,42,37,30,98,87,73,30.24,30.09,12,5,12,0.00
2012-11-11,52,46,40,39,36,32,88,69,50,30.15,30.06,14,6,14,0.00
2012-11-12,51,47,45,45,42,37,94,82,71,30.33,30.12,7,2,7,0.06
2012-11-13,53,49,45,51,45,34,98,87,64,30.50,30.27,7,2,7,0.02
2012-11-14,49,42,33,34,30,27,87,65,44,30.50,30.42,8,2,8,0.02
2012-11-15,45,40,37,42,37,31,96,89,75,30.44,30.30,6,1,6,0.00
2012-11-16,50,44,40,40,36,33,86,74,54,30.33,30.24,8,2,8,0.00
2012-11-17,46,42,38,40,36,33,88,81,69,30.27,30.09,10,5,10,0.00
2012-11-18,47,44,40,41,39,36,89,81,70,30.12,30.03,11,5,11,0.00
2012-11-19,50,45,39,41,38,35,86,77,63,30.21,30.09,6,2,6,0.00
2012-11-20,50,41,35,45,37,32,98,85,66,30.27,30.15,7,1,7,0.00
2012-11-21,50,44,36,43,38,34,96,82,60,30.27,30.21,7,2,7,0.00
2012-11-22,47,45,43,41,39,37,88,80,69,30.33,30.21,6,2,6,0.01
2012-11-23,46,45,44,45,44,41,98,96,89,30.33,30.21,6,2,6,0.04
2012-11-24,49,46,40,48,44,38,98,94,85,30.30,30.21,5,1,5,0.00
2012-11-25,47,44,42,46,42,40,98,94,84,30.27,30.15,8,2,8,0.00
2012-11-26,49,45,42,45,43,41,98,95,85,30.21,29.94,12,5,12,0.00
2012-11-27,58,49,42,48,42,39,98,78,51,29.94,29.80,10,3,10,0.00
2012-11-28,50,48,43,43,40,38,87,76,64,29.85,29.50,13,5,13,0.00
2012-11-29,59,50,42,52,42,27,98,76,49,29.50,29.29,14,6,14,0.05
2012-11-30,44,41,38,28,27,26,67,59,51,29.85,29.47,13,5,13,0.05
2012-12-1,42,36,31,29,25,21,79,63,47,30.06,29.85,9,3,9,0.00
2012-12-2,36,35,33,35,32,28,97,90,78,30.03,29.68,10,4,10,0.23
2012-12-3,36,33,29,33,24,16,98,72,51,29.88,29.68,22,7,22,0.11
2012-12-4,36,31,23,31,24,16,92,77,58,29.88,29.56,7,2,7,0.00
2012-12-5,35,32,26,33,30,24,94,92,87,29.77,29.53,7,1,7,0.00
2012-12-6,29,25,23,26,21,14,92,83,57,30.00,29.74,15,2,15,0.00
2012-12-7,30,25,20,16,14,12,72,63,51,30.03,29.91,13,3,13,0.00
2012-12-8,27,24,21,15,12,8,74,59,45,30.09,29.91,15,8,15,0.00
2012-12-9,30,25,15,10,8,5,66,49,43,30.06,29.91,17,7,17,0.00
2012-12-10,29,25,16,20,16,7,80,67,55,29.94,29.80,9,2,9,0.00
2012-12-11,28,25,23,22,17,13,82,72,60,29.97,29.83,11,4,11,0.00
2012-12-12,29,25,20,17,14,9,70,63,56,30.09,29.97,16,8,16,0.00
2012-12-13,28,22,16,15,11,7,76,62,53,30.21,30.09,10,4,10,0.00
2012-12-14,31,26,22,23,18,12,76,71,62,30.21,30.03,13,6,13,0.00
2012-12-15,36,33,30,35,29,21,98,86,66,30.06,29.80,13,4,13,0.61
2012-12-16,36,34,33,36,34,32,98,98,98,29.97,29.85,6,2,6,0.02
2012-12-17,35,34,33,35,34,33,98,98,98,29.97,29.85,10,4,10,0.03
2012-12-18,38,36,34,38,36,34,98,98,98,30.03,29.85,8,3,8,0.06
2012-12-19,41,37,34,38,34,26,98,89,67,30.15,29.97,8,4,8,0.07
2012-12-20,38,32,25,35,28,23,95,85,69,30.15,30.03,7,1,7,0.00
2012-12-21,28,24,19,25,21,15,93,90,86,30.09,29.97,5,1,5,0.00
2012-12-22,29,27,25,26,24,22,93,88,84,30.21,30.03,6,2,6,0.00
2012-12-23,31,29,28,29,25,23,93,86,80,30.18,30.03,10,4,10,0.00
2012-12-24,33,31,30,32,30,29,98,96,93,30.09,29.97,7,2,7,0.00
2012-12-25,35,33,31,34,32,30,98,98,98,30.03,29.85,7,3,7,0.00
2012-12-26,39,36,34,38,36,33,98,98,98,30.03,29.88,7,1,7,0.23
2012-12-27,45,38,32,45,38,31,98,98,97,30.03,29.85,14,4,14,0.01
2012-12-28,42,38,32,42,36,26,98,92,79,30.39,29.85,10,3,10,0.00
2012-12-29,32,29,27,26,21,17,79,71,66,30.44,30.39,11,4,11,0.00